Time;durP1;ratioP1;P1;durP2;ratioP2;P2;SDS_P1;SDS_P2;PMS_P1;PMS_P2;Temp;Humidity;BMP_temperature;BMP_pressure;BME280_temperature;BME280_humidity;BME280_pressure;Samples;Min_cycle;Max_cycle;Signal;HPM_P1;HPM_P2
2022/11/04 00:01:56;;;;;;;14.73;13.53;;;;;;;9.81;77.19;92960.56;5067712;28;20197;-69
2022/11/04 00:04:24;;;;;;;14.80;12.93;;;;;;;9.76;77.76;92963.97;5068642;28;20235;-69
2022/11/04 00:06:50;;;;;;;16.77;12.20;;;;;;;9.82;78.77;92962.16;5069543;28;20187;-70
2022/11/04 00:09:19;;;;;;;13.63;12.07;;;;;;;9.86;77.83;92959.78;5068642;28;20226;-71
2022/11/04 00:14:29;;;;;;;13.30;11.97;;;;;;;9.89;77.42;92957.44;5066311;28;20293;-69
2022/11/04 00:33:50;;;;;;;17.07;12.90;;;;;;;9.64;78.78;92949.66;5063124;28;20255;-70
2022/11/04 00:36:15;;;;;;;14.40;12.70;;;;;;;9.58;79.05;92948.13;5069054;28;20246;-70
2022/11/04 00:38:41;;;;;;;14.37;12.97;;;;;;;9.63;79.77;92937.69;5070167;28;20229;-70
2022/11/04 00:41:24;;;;;;;15.90;13.17;;;;;;;9.67;78.74;92943.94;5067951;28;20197;-71
2022/11/04 00:43:52;;;;;;;16.30;13.53;;;;;;;9.72;78.99;92946.53;5066654;28;20229;-69
2022/11/04 00:46:19;;;;;;;16.10;12.37;;;;;;;9.66;79.03;92950.97;5069357;28;20232;-70
2022/11/04 00:48:44;;;;;;;14.53;11.57;;;;;;;9.76;78.09;92929.28;5066866;28;20213;-70
2022/11/04 00:51:09;;;;;;;19.87;12.50;;;;;;;9.61;78.00;92924.13;5068863;28;20361;-70
2022/11/04 00:53:35;;;;;;;14.77;13.27;;;;;;;9.50;79.18;92919.97;5068908;28;20222;-69
2022/11/04 00:56:00;;;;;;;14.37;13.03;;;;;;;9.44;78.92;92934.06;5069471;28;20193;-69
2022/11/04 00:58:28;;;;;;;14.87;12.40;;;;;;;9.46;79.24;92904.09;5068434;28;20288;-70
2022/11/04 01:00:53;;;;;;;13.43;12.13;;;;;;;9.59;78.57;92918.41;5069372;28;20192;-69
2022/11/04 01:03:18;;;;;;;12.57;11.40;;;;;;;9.23;79.23;92903.88;5068648;28;20245;-70
2022/11/04 01:05:44;;;;;;;18.10;13.17;;;;;;;9.26;80.51;92913.78;5067327;28;20201;-69
2022/11/04 01:08:09;;;;;;;15.27;13.20;;;;;;;9.30;79.94;92917.41;5068625;28;20233;-69
2022/11/04 01:10:43;;;;;;;14.13;12.40;;;;;;;9.24;80.86;92915.88;5068639;28;20256;-69
2022/11/04 01:13:12;;;;;;;14.13;12.30;;;;;;;9.38;80.20;92920.28;5066875;28;20232;-70
2022/11/04 01:15:37;;;;;;;16.37;13.07;;;;;;;9.21;80.05;92904.13;5068625;28;20177;-69
2022/11/04 01:18:03;;;;;;;13.83;12.57;;;;;;;9.19;80.02;92911.44;5068589;28;20251;-70
2022/11/04 01:20:29;;;;;;;14.17;12.57;;;;;;;9.27;81.12;92897.09;5066599;28;20201;-70
2022/11/04 01:22:54;;;;;;;14.33;12.97;;;;;;;9.29;80.13;92895.78;5068472;28;20194;-70
2022/11/04 01:25:19;;;;;;;14.17;12.10;;;;;;;9.04;81.63;92898.41;5069305;28;20247;-70
2022/11/04 01:27:45;;;;;;;14.07;12.73;;;;;;;9.25;80.35;92893.97;5068293;28;20186;-70
2022/11/04 01:30:11;;;;;;;15.90;12.87;;;;;;;9.24;80.15;92890.59;5069886;28;20221;-70
2022/11/04 01:32:36;;;;;;;14.50;12.83;;;;;;;9.04;81.52;92882.78;5068885;28;20217;-70
2022/11/04 01:35:01;;;;;;;14.40;12.23;;;;;;;9.03;80.79;92878.63;5067613;28;20256;-71
2022/11/04 01:37:27;;;;;;;14.63;12.10;;;;;;;9.15;80.64;92884.34;5069473;28;20226;-70
2022/11/04 01:39:52;;;;;;;14.80;13.07;;;;;;;9.03;80.85;92870.81;5070350;28;20267;-70
2022/11/04 01:42:20;;;;;;;13.43;12.13;;;;;;;9.20;80.35;92883.56;5072518;28;20263;-70
2022/11/04 01:44:49;;;;;;;13.70;12.30;;;;;;;9.21;80.58;92885.88;5072472;28;20236;-70
2022/11/04 01:47:42;;;;;;;14.43;13.03;;;;;;;9.30;80.29;92881.72;5072009;28;20212;-70
2022/11/04 01:50:23;;;;;;;13.40;12.07;;;;;;;9.01;81.37;92882.56;5068977;28;20213;-71
2022/11/04 01:52:54;;;;;;;17.80;13.40;;;;;;;9.13;81.48;92878.63;5072157;28;20193;-70
2022/11/04 01:55:27;;;;;;;13.43;12.10;;;;;;;9.21;80.49;92875.47;5072600;28;20182;-70
2022/11/04 01:57:58;;;;;;;16.13;11.93;;;;;;;8.98;81.31;92875.25;5072172;28;20193;-70
2022/11/04 02:00:24;;;;;;;14.20;12.70;;;;;;;8.98;82.60;92878.63;5071459;28;20229;-70
2022/11/04 02:03:04;;;;;;;13.37;12.17;;;;;;;8.95;81.63;92875.78;5072024;28;20200;-71
2022/11/04 02:05:31;;;;;;;14.17;12.77;;;;;;;8.88;82.00;92867.44;5071184;28;20213;-69
2022/11/04 02:07:58;;;;;;;13.37;12.13;;;;;;;8.90;82.75;92867.97;5071708;28;20186;-70
2022/11/04 02:10:28;;;;;;;16.10;12.60;;;;;;;8.78;82.58;92857.06;5071806;28;20245;-69
2022/11/04 02:12:55;;;;;;;13.80;12.50;;;;;;;9.03;81.41;92865.63;5071350;28;20215;-70
2022/11/04 02:15:35;;;;;;;14.77;12.30;;;;;;;8.89;81.26;92861.97;5071509;28;20213;-70
2022/11/04 02:18:28;;;;;;;14.50;12.83;;;;;;;8.80;82.92;92857.56;5072092;28;20220;-70
2022/11/04 02:21:25;;;;;;;12.57;11.47;;;;;;;8.72;83.61;92852.88;5069100;28;20200;-71
2022/11/04 02:23:56;;;;;;;20.67;13.47;;;;;;;8.63;83.95;92859.63;5069648;28;20229;-70
2022/11/04 02:26:52;;;;;;;14.27;12.87;;;;;;;8.74;83.16;92859.38;5070563;28;20193;-70
2022/11/04 02:29:29;;;;;;;14.50;13.03;;;;;;;8.72;82.83;92864.06;5069826;28;20233;-70
2022/11/04 02:32:24;;;;;;;18.00;12.10;;;;;;;8.75;83.56;92865.34;5071944;28;20193;-70
2022/11/04 02:35:26;;;;;;;14.53;12.43;;;;;;;8.71;82.39;92856.53;5069539;28;20217;-70
2022/11/04 02:38:19;;;;;;;14.10;12.70;;;;;;;8.57;83.30;92845.84;5070025;28;20316;-70
2022/11/04 02:41:03;;;;;;;14.17;12.80;;;;;;;8.59;83.33;92848.97;5071085;28;20186;-70
2022/11/04 02:43:38;;;;;;;19.27;12.90;;;;;;;8.41;83.59;92825.28;5069868;28;20227;-71
2022/11/04 02:46:38;;;;;;;13.80;12.43;;;;;;;8.64;83.22;92856.00;5072688;28;20180;-70
2022/11/04 02:49:11;;;;;;;16.83;13.17;;;;;;;8.65;83.55;92852.34;5059588;28;20255;-70
2022/11/04 02:51:44;;;;;;;15.37;13.90;;;;;;;8.75;83.82;92844.53;5070845;28;20245;-70
2022/11/04 02:54:14;;;;;;;16.73;13.77;;;;;;;8.60;84.09;92847.16;5069863;28;20233;-70
2022/11/04 02:56:45;;;;;;;19.20;13.37;;;;;;;8.55;84.63;92850.53;5070871;28;20201;-70
2022/11/04 02:59:18;;;;;;;16.73;13.00;;;;;;;8.48;84.03;92846.63;5070271;28;20233;-70
2022/11/04 03:01:46;;;;;;;15.53;13.73;;;;;;;8.38;85.42;92846.59;5071060;28;20311;-70
2022/11/04 03:04:20;;;;;;;16.40;13.77;;;;;;;8.43;85.12;92844.81;5068548;28;20231;-70
2022/11/04 03:06:48;;;;;;;16.43;12.97;;;;;;;8.39;84.68;92822.19;5069909;28;20185;-70
2022/11/04 03:09:15;;;;;;;14.43;13.13;;;;;;;8.34;84.72;92835.97;5069621;28;21271;-70
2022/11/04 03:11:45;;;;;;;19.63;14.33;;;;;;;8.26;85.58;92838.28;5070220;28;20206;-70
2022/11/04 03:14:19;;;;;;;15.97;14.20;;;;;;;8.34;85.06;92848.19;5070920;28;20260;-70
2022/11/04 03:16:49;;;;;;;14.83;13.33;;;;;;;8.46;84.80;92848.69;5070987;28;20188;-70
2022/11/04 03:19:25;;;;;;;15.43;13.83;;;;;;;8.36;84.87;92844.28;5070216;28;20230;-70
2022/11/04 03:22:03;;;;;;;22.13;13.50;;;;;;;8.30;85.73;92854.91;5070303;28;20185;-70
2022/11/04 03:24:30;;;;;;;16.60;13.80;;;;;;;8.20;86.56;92848.63;5069152;28;20264;-70
2022/11/04 03:27:26;;;;;;;14.97;13.40;;;;;;;8.14;86.37;92852.28;5071349;28;20268;-70
2022/11/04 03:30:03;;;;;;;15.40;14.03;;;;;;;8.12;87.03;92853.59;5069809;28;20228;-71
2022/11/04 03:32:50;;;;;;;15.67;13.07;;;;;;;8.23;86.43;92850.00;5069973;28;20739;-70
2022/11/04 03:35:17;;;;;;;15.43;13.83;;;;;;;8.25;85.96;92841.94;5090539;28;20216;-70
2022/11/04 03:37:43;;;;;;;14.40;13.20;;;;;;;8.12;86.04;92835.38;5090231;28;20192;-71
2022/11/04 03:40:10;;;;;;;16.30;14.13;;;;;;;8.22;85.87;92850.22;5071078;28;20189;-71
2022/11/04 03:42:40;;;;;;;20.03;14.17;;;;;;;8.28;86.36;92846.63;5069201;28;20254;-71
2022/11/04 03:45:07;;;;;;;13.97;12.63;;;;;;;8.11;86.34;92842.38;5068840;28;20243;-70
2022/11/04 03:47:32;;;;;;;15.17;13.87;;;;;;;8.06;86.50;92824.16;5069721;28;20189;-70
2022/11/04 03:50:08;;;;;;;16.07;14.37;;;;;;;8.04;86.89;92828.09;5068472;28;20221;-71
2022/11/04 03:52:34;;;;;;;16.13;14.53;;;;;;;8.01;87.08;92826.00;5069034;28;20264;-70
2022/11/04 03:55:01;;;;;;;20.60;13.93;;;;;;;7.89;87.81;92823.63;5066433;28;20209;-70
2022/11/04 03:57:37;;;;;;;20.10;14.07;;;;;;;8.13;86.90;92834.31;5069664;28;20227;-70
2022/11/04 04:00:06;;;;;;;16.90;14.37;;;;;;;7.96;87.34;92838.97;5068165;28;20223;-71
2022/11/04 04:02:46;;;;;;;21.17;14.57;;;;;;;8.04;88.00;92825.47;5069302;28;20189;-67
2022/11/04 04:05:38;;;;;;;17.30;15.27;;;;;;;7.98;87.69;92832.47;5087295;28;20318;-67
2022/11/04 04:08:18;;;;;;;17.97;13.60;;;;;;;7.93;88.94;92835.09;5086233;28;20229;-67
2022/11/04 04:11:21;;;;;;;16.67;15.17;;;;;;;7.97;88.48;92830.91;5069338;28;20249;-66
2022/11/04 04:14:09;;;;;;;16.17;13.13;;;;;;;7.96;88.37;92831.97;5066670;28;20247;-67
2022/11/04 04:16:40;;;;;;;15.23;13.63;;;;;;;8.11;87.88;92831.19;5060732;28;20184;-67
2022/11/04 04:19:19;;;;;;;22.80;13.63;;;;;;;7.98;87.84;92832.47;5066417;28;20237;-67
2022/11/04 04:21:57;;;;;;;18.90;14.33;;;;;;;7.99;88.44;92828.84;5067630;28;20224;-68
2022/11/04 04:27:31;;;;;;;16.33;14.63;;;;;;;7.87;88.94;92824.94;5090458;28;20218;-68
2022/11/04 04:30:07;;;;;;;16.37;13.90;;;;;;;7.84;88.78;92821.00;5069787;28;20312;-68
2022/11/04 04:32:38;;;;;;;17.47;15.67;;;;;;;7.83;88.73;92818.66;5069086;28;20197;-68
2022/11/04 04:37:52;;;;;;;18.10;14.67;;;;;;;7.85;89.61;92827.00;5065593;28;20196;-68
2022/11/04 04:46:00;;;;;;;23.17;16.93;;;;;;;7.76;90.81;92824.13;5067913;28;20203;-68
2022/11/04 04:48:25;;;;;;;23.37;17.20;;;;;;;7.86;90.09;92824.13;5068114;28;20225;-68
2022/11/04 04:50:55;;;;;;;22.70;16.70;;;;;;;7.75;90.08;92814.75;5067243;28;20186;-69
2022/11/04 04:53:21;;;;;;;22.57;16.83;;;;;;;7.74;90.00;92821.00;5066259;28;20256;-66
2022/11/04 04:55:47;;;;;;;21.23;16.33;;;;;;;7.68;90.75;92816.03;5064558;28;20185;-65
2022/11/04 04:58:12;;;;;;;23.30;16.77;;;;;;;7.66;90.90;92811.09;5067077;28;20256;-67
2022/11/04 05:00:37;;;;;;;19.80;15.87;;;;;;;7.57;90.66;92802.22;5067086;28;20193;-68
2022/11/04 05:03:03;;;;;;;21.93;16.77;;;;;;;7.66;91.20;92813.69;5064753;28;20256;-68
2022/11/04 05:05:28;;;;;;;20.77;17.17;;;;;;;7.75;90.87;92819.94;5062568;28;20213;-68
2022/11/04 05:07:54;;;;;;;22.70;16.53;;;;;;;7.70;91.58;92827.75;5067826;28;20218;-68
2022/11/04 05:10:19;;;;;;;23.13;16.63;;;;;;;7.82;92.10;92822.31;5065663;28;20189;-68
2022/11/04 05:15:30;;;;;;;17.83;15.33;;;;;;;7.89;91.04;92828.06;5072364;28;20207;-68
2022/11/04 05:17:57;;;;;;;19.53;17.43;;;;;;;7.91;90.35;92833.75;5071785;28;20209;-68
2022/11/04 05:20:23;;;;;;;16.97;15.10;;;;;;;7.78;91.63;92835.03;5070815;28;20218;-67
2022/11/04 05:22:48;;;;;;;19.73;17.20;;;;;;;7.92;91.02;92838.69;5067058;28;20282;-68
2022/11/04 05:25:14;;;;;;;22.13;17.20;;;;;;;7.75;91.45;92826.97;5070688;28;20213;-66
2022/11/04 05:27:39;;;;;;;24.20;17.17;;;;;;;8.03;90.90;92845.47;5070773;28;20221;-67
2022/11/04 05:30:05;;;;;;;22.53;16.73;;;;;;;8.03;90.80;92840.28;5070850;28;20228;-67
2022/11/04 05:32:30;;;;;;;20.47;16.63;;;;;;;7.90;90.76;92819.22;5070855;28;20208;-68
2022/11/04 05:34:56;;;;;;;19.83;17.10;;;;;;;8.13;90.43;92839.53;5071235;28;20229;-67
2022/11/04 05:37:22;;;;;;;24.57;17.07;;;;;;;8.15;90.25;92834.88;5069989;28;20193;-68
2022/11/04 05:39:47;;;;;;;26.13;16.97;;;;;;;8.19;90.75;92854.09;5070222;28;20233;-68
2022/11/04 05:42:13;;;;;;;22.87;16.40;;;;;;;8.10;90.92;92834.84;5069271;28;20259;-68
2022/11/04 05:44:38;;;;;;;26.37;17.60;;;;;;;8.35;90.40;92860.94;5071283;28;20232;-68
2022/11/04 05:47:03;;;;;;;20.83;17.03;;;;;;;8.39;90.64;92861.19;5071056;28;20211;-67
2022/11/04 05:49:29;;;;;;;23.47;17.77;;;;;;;8.54;89.78;92863.81;5069925;28;20225;-68
2022/11/04 05:51:54;;;;;;;26.10;18.23;;;;;;;8.44;90.20;92851.56;5071685;28;20280;-68
2022/11/04 05:54:20;;;;;;;22.47;17.23;;;;;;;8.51;90.32;92840.91;5078277;28;20240;-68
2022/11/04 05:56:45;;;;;;;23.07;17.87;;;;;;;8.54;90.59;92862.00;5070595;28;20252;-68
2022/11/04 05:59:11;;;;;;;20.40;16.83;;;;;;;8.55;91.17;92865.34;5082204;28;21035;-67
2022/11/04 06:01:40;;;;;;;27.87;19.63;;;;;;;8.65;91.22;92867.97;5089852;28;20257;-68
2022/11/04 06:04:06;;;;;;;22.17;18.00;;;;;;;8.61;91.41;92872.13;5078084;28;20220;-68
2022/11/04 06:06:35;;;;;;;21.43;17.23;;;;;;;8.72;91.51;92876.28;5070695;28;20189;-68
2022/11/04 06:09:01;;;;;;;20.00;17.90;;;;;;;8.78;90.69;92867.47;5066742;28;20229;-68
2022/11/04 06:11:29;;;;;;;22.77;17.37;;;;;;;8.95;90.32;92881.00;5070278;28;20190;-68
2022/11/04 06:13:55;;;;;;;19.17;17.23;;;;;;;9.03;90.09;92880.44;5068031;28;20225;-67
2022/11/04 06:16:22;;;;;;;25.03;17.67;;;;;;;9.04;89.73;92879.41;5071740;28;20185;-67
2022/11/04 06:18:47;;;;;;;23.40;18.50;;;;;;;9.15;89.55;92878.38;5066480;28;20233;-68
2022/11/04 06:21:12;;;;;;;24.93;17.67;;;;;;;9.16;89.25;92877.31;5069340;28;20629;-68
2022/11/04 06:23:39;;;;;;;19.30;17.33;;;;;;;9.33;88.08;92867.38;5068397;28;20229;-68
2022/11/04 06:26:05;;;;;;;25.27;18.97;;;;;;;9.34;88.44;92871.53;5070864;28;20190;-68
2022/11/04 06:28:31;;;;;;;23.67;18.53;;;;;;;9.42;87.78;92876.22;5070768;28;20229;-67
2022/11/04 06:30:57;;;;;;;22.30;17.73;;;;;;;9.42;88.19;92874.41;5069892;28;20190;-67
2022/11/04 06:33:23;;;;;;;26.10;19.37;;;;;;;9.45;88.02;92862.66;5067528;28;20224;-70
2022/11/04 06:35:48;;;;;;;25.67;19.87;;;;;;;9.55;87.75;92873.84;5068268;28;20197;-68
2022/11/04 06:38:13;;;;;;;26.77;18.33;;;;;;;9.63;87.79;92875.13;5068100;28;20233;-69
2022/11/04 06:40:39;;;;;;;26.53;19.67;;;;;;;9.70;88.20;92865.97;5067273;28;20190;-67
2022/11/04 06:43:04;;;;;;;25.57;19.63;;;;;;;9.62;88.11;92866.53;5068355;28;20233;-68
2022/11/04 06:45:29;;;;;;;30.97;20.43;;;;;;;9.99;87.03;92889.59;5070863;28;20278;-68
2022/11/04 06:47:55;;;;;;;27.87;21.97;;;;;;;10.04;86.98;92870.53;5070975;28;20213;-70
2022/11/04 06:50:20;;;;;;;27.73;20.07;;;;;;;10.13;87.37;92879.38;5069698;28;20197;-67
2022/11/04 06:52:45;;;;;;;30.23;20.20;;;;;;;10.12;88.34;92883.81;5066915;28;20186;-69
2022/11/04 06:55:11;;;;;;;36.13;20.87;;;;;;;10.35;87.40;92877.94;5067685;28;20343;-68
2022/11/04 06:57:36;;;;;;;28.93;21.33;;;;;;;10.35;86.91;92871.97;5068919;28;20189;-69
2022/11/04 07:00:02;;;;;;;31.70;21.23;;;;;;;10.52;86.44;92886.19;5069443;28;20221;-70
2022/11/04 07:02:28;;;;;;;32.53;21.93;;;;;;;10.54;85.85;92884.09;5070276;28;20197;-69
2022/11/04 07:04:53;;;;;;;29.90;22.13;;;;;;;10.77;84.21;92880.81;5070837;28;20238;-69
2022/11/04 07:07:18;;;;;;;31.40;20.93;;;;;;;10.81;82.97;92865.38;5072233;28;20208;-69
2022/11/04 07:09:44;;;;;;;34.53;23.70;;;;;;;10.86;82.99;92858.25;5069018;28;20247;-69
2022/11/04 07:12:09;;;;;;;32.97;23.13;;;;;;;10.93;82.87;92873.63;5067815;28;20209;-67
2022/11/04 07:14:35;;;;;;;33.73;23.07;;;;;;;10.72;84.43;92878.22;5069312;28;20342;-66
2022/11/04 07:17:00;;;;;;;31.87;22.33;;;;;;;10.94;83.61;92880.44;5069367;28;20193;-67
2022/11/04 07:19:26;;;;;;;32.00;22.73;;;;;;;10.90;84.17;92874.19;5068910;28;20253;-70
2022/11/04 07:21:51;;;;;;;30.67;24.60;;;;;;;11.06;83.87;92865.97;5069525;28;20197;-70
2022/11/04 07:24:17;;;;;;;31.70;23.30;;;;;;;10.88;85.83;92858.03;5066469;28;20291;-68
2022/11/04 07:26:42;;;;;;;31.60;22.20;;;;;;;11.06;84.15;92846.88;5068741;28;20208;-69
2022/11/04 07:29:10;;;;;;;29.03;22.63;;;;;;;11.11;84.96;92865.91;5069407;28;20241;-68
2022/11/04 07:31:36;;;;;;;33.27;22.47;;;;;;;11.67;81.94;92847.88;5069502;28;20228;-67
2022/11/04 07:34:02;;;;;;;30.50;21.23;;;;;;;11.45;83.96;92862.44;5069456;28;20288;-69
2022/11/04 07:36:27;;;;;;;35.03;22.23;;;;;;;11.38;83.56;92833.25;5069230;28;20190;-70
2022/11/04 07:38:53;;;;;;;36.40;22.70;;;;;;;11.28;83.52;92842.72;5068289;28;20243;-69
2022/11/04 07:41:18;;;;;;;36.07;22.67;;;;;;;11.56;82.18;92832.53;5068482;28;20189;-69
2022/11/04 07:43:51;;;;;;;40.97;22.07;;;;;;;11.81;80.82;92837.50;5069763;28;20233;-68
2022/11/04 07:46:18;;;;;;;29.37;21.60;;;;;;;11.88;80.69;92843.94;5070425;28;20181;-68
2022/11/04 07:48:44;;;;;;;31.03;21.23;;;;;;;12.13;79.75;92850.69;5070317;28;20240;-68
2022/11/04 07:51:12;;;;;;;30.13;21.87;;;;;;;12.02;79.46;92851.88;5068746;28;20185;-67
2022/11/04 07:53:38;;;;;;;32.03;21.73;;;;;;;12.15;79.75;92838.91;5067692;28;20217;-68
2022/11/04 07:56:07;;;;;;;36.17;22.90;;;;;;;12.38;78.52;92847.75;5067769;28;20181;-67
2022/11/04 07:58:33;;;;;;;41.47;22.40;;;;;;;12.37;78.60;92838.34;5067705;28;20236;-67
2022/11/04 12:35:52;;;;;;;23.53;16.50;;;;;;;17.13;58.22;92499.50;5113602;27;20581;-68
2022/11/04 12:38:30;;;;;;;22.83;15.03;;;;;;;17.08;56.02;92495.19;5103650;28;20184;-67
2022/11/04 12:41:38;;;;;;;21.50;16.43;;;;;;;17.32;56.16;92503.22;5118876;28;20231;-67
2022/11/04 12:44:25;;;;;;;20.43;16.17;;;;;;;17.55;55.95;92509.00;5123284;28;20238;-70
2022/11/04 12:47:14;;;;;;;31.27;16.07;;;;;;;17.38;55.64;92504.59;5103219;28;20823;-67
2022/11/04 12:49:57;;;;;;;18.43;15.60;;;;;;;17.44;55.20;92490.16;5108993;28;20291;-68
2022/11/04 12:52:30;;;;;;;21.03;17.20;;;;;;;17.83;54.28;92494.16;5123860;28;20215;-68
2022/11/04 12:55:15;;;;;;;23.03;17.37;;;;;;;17.84;54.70;92503.63;5123756;28;20225;-68
2022/11/04 12:57:43;;;;;;;23.80;16.17;;;;;;;17.99;53.39;92489.81;5124113;28;20188;-68
2022/11/04 13:00:14;;;;;;;25.10;17.27;;;;;;;18.02;53.31;92485.75;5119854;28;20247;-68
2022/11/04 13:02:47;;;;;;;23.70;16.40;;;;;;;17.80;53.79;92483.47;5125429;28;20207;-67
2022/11/04 13:05:12;;;;;;;25.23;15.83;;;;;;;17.65;55.45;92492.75;5123271;28;20220;-68
2022/11/04 13:07:48;;;;;;;16.77;14.87;;;;;;;17.63;55.30;92481.75;5123634;28;20194;-68
2022/11/04 13:10:26;;;;;;;20.30;15.43;;;;;;;17.31;55.94;92491.13;5123130;27;20242;-68
2022/11/04 13:12:55;;;;;;;29.43;17.33;;;;;;;17.26;56.71;92498.50;5122215;28;20197;-68
2022/11/04 13:15:24;;;;;;;24.77;16.93;;;;;;;17.54;54.87;92475.78;5124943;27;20223;-67
2022/11/04 13:17:54;;;;;;;27.00;16.70;;;;;;;17.69;54.16;92484.97;5122569;28;20184;-67
2022/11/04 13:20:29;;;;;;;24.87;16.37;;;;;;;17.39;56.07;92487.66;5123679;27;20248;-67
2022/11/04 13:23:00;;;;;;;23.27;16.73;;;;;;;17.27;57.49;92478.91;5124053;28;20220;-68
2022/11/04 13:25:36;;;;;;;26.47;18.20;;;;;;;17.09;57.41;92477.50;5123214;27;21318;-69
2022/11/04 13:28:02;;;;;;;24.70;16.87;;;;;;;16.96;59.15;92487.22;5123753;28;20668;-69
2022/11/04 13:31:03;;;;;;;26.00;17.03;;;;;;;16.79;57.02;92497.84;5124109;28;20254;-68
2022/11/04 13:33:31;;;;;;;26.07;17.40;;;;;;;16.91;57.41;92497.16;5124123;28;20196;-68
2022/11/04 13:36:02;;;;;;;23.27;17.37;;;;;;;17.03;57.63;92484.81;5112616;27;20243;-68
2022/11/04 13:38:35;;;;;;;19.87;16.33;;;;;;;16.99;58.07;92481.28;5109848;28;20190;-68
2022/11/04 13:41:00;;;;;;;25.77;17.27;;;;;;;16.92;57.02;92488.91;5109732;28;20287;-67
2022/11/04 13:43:37;;;;;;;26.47;17.60;;;;;;;17.08;56.70;92476.72;5109158;28;20219;-68
2022/11/04 13:46:16;;;;;;;29.63;18.43;;;;;;;17.12;57.28;92488.16;5111346;28;20230;-68
2022/11/04 13:48:57;;;;;;;24.90;16.77;;;;;;;16.97;57.66;92490.59;5109758;28;20199;-68
2022/11/04 13:51:34;;;;;;;24.33;16.87;;;;;;;16.92;57.29;92475.72;5091030;28;20231;-68
2022/11/04 13:53:59;;;;;;;25.57;16.97;;;;;;;17.03;56.57;92474.28;5088156;28;20227;-69
2022/11/04 13:56:26;;;;;;;23.47;16.57;;;;;;;16.93;58.29;92485.22;5109441;28;20223;-69
2022/11/04 13:58:55;;;;;;;28.13;17.40;;;;;;;16.79;58.96;92476.75;5107859;28;20219;-68
2022/11/04 14:01:20;;;;;;;24.33;17.00;;;;;;;16.85;58.58;92483.38;5110850;28;20228;-69
2022/11/04 14:04:16;;;;;;;19.70;15.33;;;;;;;16.60;60.53;92481.66;5109784;28;20215;-69
2022/11/04 14:07:02;;;;;;;26.93;16.33;;;;;;;16.50;59.64;92473.34;5108265;28;20215;-69
2022/11/04 14:09:28;;;;;;;28.20;16.63;;;;;;;16.48;60.95;92478.16;5107596;28;20280;-69
2022/11/04 14:12:18;;;;;;;22.77;17.17;;;;;;;16.63;59.76;92454.66;5109602;28;20191;-69
2022/11/04 14:15:01;;;;;;;37.77;23.83;;;;;;;16.52;60.85;92458.75;5110421;28;20240;-69
2022/11/04 14:17:32;;;;;;;34.00;17.30;;;;;;;16.35;59.75;92466.72;5110529;28;20181;-69
2022/11/04 14:20:04;;;;;;;20.17;15.67;;;;;;;16.48;58.30;92463.13;5109166;28;20242;-68
2022/11/04 14:22:45;;;;;;;24.23;15.00;;;;;;;16.39;58.50;92464.97;5109500;28;20248;-69
2022/11/04 14:25:44;;;;;;;19.20;13.53;;;;;;;16.44;56.94;92467.47;5106910;28;20240;-67
2022/11/04 14:28:13;;;;;;;38.97;24.10;;;;;;;16.30;58.79;92460.81;5106307;28;20168;-66
2022/11/04 14:30:50;;;;;;;37.83;21.27;;;;;;;16.23;59.57;92461.34;5109147;28;20254;-66
2022/11/04 14:33:38;;;;;;;26.10;15.97;;;;;;;16.04;59.62;92463.56;5109580;28;20211;-66
2022/11/04 14:36:15;;;;;;;26.33;15.47;;;;;;;16.34;54.33;92473.06;5105360;28;20232;-66
2022/11/04 14:38:43;;;;;;;24.40;16.17;;;;;;;16.55;51.48;92463.38;5107633;28;20191;-68
2022/11/04 14:41:24;;;;;;;34.60;16.60;;;;;;;16.24;57.97;92462.88;5107438;28;20212;-67
2022/11/04 14:43:53;;;;;;;21.93;13.80;;;;;;;16.26;51.68;92458.06;5108889;28;20203;-67
2022/11/04 14:46:21;;;;;;;16.50;13.43;;;;;;;16.24;52.67;92457.59;5108246;28;20232;-67
2022/11/04 14:48:50;;;;;;;27.67;14.53;;;;;;;16.09;55.89;92466.78;5108176;28;20187;-68
2022/11/04 14:51:28;;;;;;;35.40;14.87;;;;;;;15.96;55.61;92469.63;5109374;28;20219;-68
2022/11/04 14:54:20;;;;;;;31.40;17.80;;;;;;;15.78;56.21;92470.78;5107187;28;20194;-67
2022/11/04 14:56:45;;;;;;;16.93;13.67;;;;;;;15.77;53.55;92458.69;5087599;28;20192;-67
2022/11/04 14:59:21;;;;;;;29.03;15.07;;;;;;;15.66;53.75;92439.03;5087012;28;21028;-68
2022/11/04 15:01:48;;;;;;;21.63;14.70;;;;;;;15.80;55.82;92442.25;5089373;28;20808;-68
2022/11/04 15:04:13;;;;;;;22.53;16.50;;;;;;;15.95;52.19;92441.75;5087923;28;20209;-67
2022/11/04 15:06:39;;;;;;;36.30;20.87;;;;;;;15.74;55.44;92439.03;5107564;28;20176;-67
2022/11/04 15:09:19;;;;;;;34.93;21.50;;;;;;;15.42;57.32;92421.16;5104698;28;20194;-69
2022/11/04 15:14:28;;;;;;;23.17;13.13;;;;;;;15.03;56.70;92407.38;5089621;28;20231;-68
2022/11/04 15:16:56;;;;;;;11.50;10.40;;;;;;;15.25;50.69;92430.88;5104264;28;20196;-68
2022/11/04 15:19:33;;;;;;;12.90;11.60;;;;;;;15.37;50.05;92425.75;5105301;28;20203;-68
2022/11/04 15:22:01;;;;;;;11.67;10.53;;;;;;;15.43;50.13;92435.84;5105119;28;20184;-67
2022/11/04 15:24:27;;;;;;;11.87;10.77;;;;;;;15.57;47.30;92438.28;5106288;28;20245;-68
2022/11/04 15:27:01;;;;;;;11.83;10.77;;;;;;;15.68;47.43;92437.66;5108199;28;20189;-68
2022/11/04 15:29:27;;;;;;;10.67;9.43;;;;;;;15.62;48.01;92432.88;5107817;28;20250;-68
2022/11/04 15:32:03;;;;;;;11.17;10.03;;;;;;;15.55;47.97;92428.06;5110340;28;20199;-68
2022/11/04 15:34:30;;;;;;;10.93;9.93;;;;;;;15.55;48.15;92440.44;5106713;28;20231;-67
2022/11/04 15:36:59;;;;;;;12.87;11.43;;;;;;;15.78;46.44;92434.66;5108783;28;20198;-68
2022/11/04 15:39:35;;;;;;;12.73;11.57;;;;;;;15.70;47.19;92438.09;5106136;28;20219;-67
2022/11/04 15:44:51;;;;;;;11.00;10.10;;;;;;;15.94;46.50;92443.63;5108174;28;20238;-68
2022/11/04 15:47:16;;;;;;;11.20;8.57;;;;;;;16.40;44.32;92442.03;5109126;28;20184;-69
2022/11/04 15:49:42;;;;;;;11.67;10.40;;;;;;;16.31;44.46;92446.59;5108958;28;20238;-68
2022/11/04 15:52:13;;;;;;;12.37;11.07;;;;;;;16.27;44.34;92435.91;5106034;28;20314;-68
2022/11/04 15:54:41;;;;;;;11.07;10.23;;;;;;;16.14;45.50;92441.38;5106757;28;20220;-68
2022/11/04 15:57:25;;;;;;;13.30;10.67;;;;;;;16.15;45.16;92443.72;5107303;28;20265;-68
2022/11/04 16:00:07;;;;;;;11.37;10.27;;;;;;;16.33;44.24;92445.16;5107338;28;20239;-68
2022/11/04 16:02:37;;;;;;;13.00;10.37;;;;;;;16.27;45.28;92449.06;5107186;28;20279;-68
2022/11/04 16:05:07;;;;;;;10.63;9.93;;;;;;;16.38;43.76;92445.00;5105880;28;20317;-68
2022/11/04 16:07:37;;;;;;;11.07;9.97;;;;;;;16.23;48.38;92445.53;5106879;28;20207;-67
2022/11/04 16:10:22;;;;;;;15.23;11.67;;;;;;;16.36;44.18;92444.53;5107079;28;20247;-67
2022/11/04 16:12:49;;;;;;;12.10;10.60;;;;;;;16.40;43.81;92449.94;5106581;28;20206;-68
2022/11/04 16:15:55;;;;;;;13.07;11.93;;;;;;;16.28;43.88;92449.84;5107084;28;20253;-67
2022/11/04 16:18:46;;;;;;;11.80;10.80;;;;;;;16.05;44.70;92436.13;5084627;28;20244;-68
2022/11/04 16:21:11;;;;;;;11.77;10.73;;;;;;;16.02;45.72;92437.56;5086373;28;20224;-70
2022/11/04 16:23:44;;;;;;;10.63;8.93;;;;;;;16.09;45.12;92439.69;5098358;28;20260;-70
2022/11/04 16:26:10;;;;;;;10.87;10.00;;;;;;;16.02;45.64;92440.19;5108423;28;20255;-72
2022/11/04 16:28:38;;;;;;;10.87;9.87;;;;;;;15.98;45.41;92438.50;5104221;28;20613;-71
2022/11/04 16:31:31;;;;;;;10.60;9.70;;;;;;;15.98;45.94;92433.25;5106974;28;20253;-71
2022/11/04 16:33:57;;;;;;;10.53;9.43;;;;;;;15.80;46.63;92439.63;5104812;28;20220;-69
2022/11/04 16:36:22;;;;;;;11.07;10.17;;;;;;;15.70;46.58;92429.44;5106664;28;20235;-71
2022/11/04 16:38:55;;;;;;;10.60;9.80;;;;;;;15.74;46.22;92430.34;5105950;28;20188;-70
2022/11/04 16:41:23;;;;;;;11.63;10.67;;;;;;;15.78;45.89;92428.66;5105693;28;20222;-71
2022/11/04 16:43:50;;;;;;;12.27;11.30;;;;;;;15.67;46.51;92422.19;5105414;28;20226;-71
2022/11/04 16:46:16;;;;;;;12.80;11.50;;;;;;;15.64;47.54;92420.19;5103004;28;20235;-70
2022/11/04 16:48:42;;;;;;;15.00;12.97;;;;;;;15.29;51.55;92421.28;5103590;28;20184;-68
2022/11/04 16:51:14;;;;;;;19.67;13.07;;;;;;;15.13;52.95;92417.59;5107438;28;20249;-70
2022/11/04 16:53:40;;;;;;;22.43;17.47;;;;;;;14.63;56.13;92417.22;5106311;28;20188;-70
2022/11/04 16:56:07;;;;;;;18.00;14.30;;;;;;;14.74;55.55;92418.47;5108109;28;20917;-72